Terminal Aerodrome Forecast
Issued by NWS Cleveland, OH

Home | Current Version | Previous Version | Graphics & Text | Print | Product List | Glossary Off
Versions: 1 2 3 4 5 6 7 8 9 10 11 12 13 14 15 16 17 18 19 20 21

000
FTUS41 KCLE 251500 AAA
TAFCAK
TAF AMD
KCAK 251532Z 2516/2612 24015G22KT P6SM OVC025
     FM251900 25012G20KT P6SM OVC030
     FM260000 25005KT P6SM OVC035
     FM260500 VRB03KT P6SM SCT035=

USA.gov is the U.S. government's official web portal to all federal, state and local government web resources and services.